createdAt,value
2023-03-26T00:01:17.503Z,3.97
2023-03-26T00:03:47.193Z,4.65
2023-03-26T00:06:17.030Z,4.88
2023-03-26T00:08:45.789Z,4.63
2023-03-26T00:11:14.197Z,5.35
2023-03-26T00:13:43.604Z,5.70
2023-03-26T00:16:13.621Z,4.53
2023-03-26T00:18:42.521Z,4.20
2023-03-26T00:21:15.157Z,3.95
2023-03-26T00:23:42.966Z,4.93
2023-03-26T00:26:10.747Z,5.53
2023-03-26T00:28:40.352Z,6.00
2023-03-26T00:31:11.218Z,5.25
2023-03-26T00:33:38.581Z,5.03
2023-03-26T00:36:09.845Z,5.40
2023-03-26T00:38:38.996Z,5.47
2023-03-26T00:41:08.128Z,4.35
2023-03-26T00:43:35.845Z,3.97
2023-03-26T00:46:02.500Z,4.53
2023-03-26T00:48:44.047Z,3.60
2023-03-26T00:53:39.001Z,4.43
2023-03-26T00:56:06.962Z,4.43
2023-03-26T00:58:34.079Z,4.05
2023-03-26T01:01:07.106Z,4.93
2023-03-26T01:03:36.203Z,4.55
2023-03-26T01:06:27.841Z,4.25
2023-03-26T01:09:00.411Z,3.88
2023-03-26T01:11:30.631Z,4.57
2023-03-26T01:14:11.355Z,5.22
2023-03-26T01:16:51.879Z,4.10
2023-03-26T01:19:34.018Z,4.32
2023-03-26T01:22:00.677Z,4.15
2023-03-26T01:24:27.130Z,4.28
2023-03-26T01:27:02.631Z,4.32
2023-03-26T01:29:55.191Z,4.18
2023-03-26T01:35:19.862Z,4.55
2023-03-26T01:38:10.913Z,4.97
2023-03-26T01:40:46.733Z,5.30
2023-03-26T01:43:47.419Z,5.65
2023-03-26T01:46:16.183Z,4.70
2023-03-26T01:48:44.886Z,6.10
2023-03-26T01:51:13.224Z,5.72
2023-03-26T01:53:46.998Z,5.32
2023-03-26T01:56:29.455Z,6.53
2023-03-26T01:59:16.728Z,5.30
2023-03-26T02:01:59.913Z,7.35
2023-03-26T02:04:37.617Z,6.20
2023-03-26T02:07:25.356Z,6.93
2023-03-26T02:09:56.118Z,6.10
2023-03-26T02:12:23.761Z,6.43
2023-03-26T02:14:50.534Z,7.90
2023-03-26T02:17:19.119Z,7.65
2023-03-26T02:19:45.647Z,6.03
2023-03-26T02:22:15.620Z,7.78
2023-03-26T02:24:43.051Z,6.47
2023-03-26T02:27:12.301Z,6.47
2023-03-26T02:29:39.904Z,6.68
2023-03-26T02:32:08.071Z,6.07
2023-03-26T02:34:34.548Z,6.97
2023-03-26T02:37:01.077Z,5.95
2023-03-26T02:39:30.562Z,6.50
2023-03-26T02:41:56.994Z,6.53
2023-03-26T02:44:23.405Z,6.20
2023-03-26T02:46:49.849Z,6.32
2023-03-26T02:49:16.360Z,6.13
2023-03-26T02:51:42.754Z,6.88
2023-03-26T02:54:09.789Z,7.18
2023-03-26T02:56:36.580Z,8.40
2023-03-26T02:59:03.222Z,6.13
2023-03-26T03:01:30.898Z,7.88
2023-03-26T03:03:57.630Z,5.80
2023-03-26T03:06:26.424Z,7.22
2023-03-26T03:08:53.925Z,7.05
2023-03-26T03:11:22.228Z,6.97
2023-03-26T03:13:48.788Z,6.97
2023-03-26T03:16:15.494Z,7.10
2023-03-26T03:18:41.882Z,6.70
2023-03-26T03:21:08.628Z,8.18
2023-03-26T03:23:35.424Z,7.68
2023-03-26T03:26:02.632Z,7.05
2023-03-26T03:28:29.301Z,7.70
2023-03-26T03:30:57.524Z,6.80
2023-03-26T03:33:24.262Z,7.60
2023-03-26T03:35:50.901Z,6.38
2023-03-26T03:38:19.103Z,6.90
2023-03-26T03:40:46.183Z,7.13
2023-03-26T03:43:12.577Z,6.72
2023-03-26T03:45:39.074Z,7.32
2023-03-26T03:48:05.887Z,7.57
2023-03-26T03:50:35.061Z,6.97
2023-03-26T03:53:02.942Z,8.00
2023-03-26T03:55:29.983Z,7.85
2023-03-26T03:57:58.370Z,7.13
2023-03-26T04:00:24.845Z,8.05
2023-03-26T04:02:54.267Z,7.43
2023-03-26T04:05:21.240Z,6.75
2023-03-26T04:07:47.716Z,7.40
2023-03-26T04:10:16.039Z,7.50
2023-03-26T04:12:42.466Z,8.50
2023-03-26T04:15:09.098Z,6.88
2023-03-26T04:17:42.331Z,8.55
2023-03-26T04:20:19.159Z,8.07
2023-03-26T04:22:45.606Z,9.15
2023-03-26T04:25:13.156Z,6.43
2023-03-26T04:27:41.712Z,8.40
2023-03-26T04:30:12.503Z,7.80
2023-03-26T04:32:40.394Z,7.75
2023-03-26T04:35:07.145Z,7.22
2023-03-26T04:37:39.530Z,7.93
2023-03-26T04:40:09.354Z,8.63
2023-03-26T04:42:37.649Z,8.35
2023-03-26T04:45:14.711Z,7.40
2023-03-26T04:47:41.291Z,8.85
2023-03-26T04:50:09.967Z,8.57
2023-03-26T04:52:37.359Z,8.18
2023-03-26T04:55:08.262Z,7.60
2023-03-26T04:57:38.804Z,7.60
2023-03-26T05:00:15.309Z,8.75
2023-03-26T05:02:43.133Z,9.60
2023-03-26T05:05:13.097Z,8.27
2023-03-26T05:07:39.508Z,8.27
2023-03-26T05:10:06.737Z,10.07
2023-03-26T05:12:33.152Z,6.72
2023-03-26T05:14:59.599Z,8.43
2023-03-26T05:17:26.628Z,9.63
2023-03-26T05:19:53.083Z,9.13
2023-03-26T05:22:19.505Z,10.00
2023-03-26T05:24:46.180Z,8.90
2023-03-26T05:27:25.063Z,10.00
2023-03-26T05:29:51.801Z,9.80
2023-03-26T05:32:18.175Z,9.38
2023-03-26T05:34:44.542Z,9.23
2023-03-26T05:37:10.917Z,8.68
2023-03-26T05:39:37.358Z,9.68
2023-03-26T05:42:03.995Z,10.48
2023-03-26T05:44:30.419Z,10.38
2023-03-26T05:46:56.878Z,9.70
2023-03-26T05:49:23.418Z,9.25
2023-03-26T05:51:49.908Z,10.45
2023-03-26T05:54:16.322Z,10.23
2023-03-26T05:56:42.786Z,10.10
2023-03-26T05:59:09.210Z,11.90
2023-03-26T06:01:35.632Z,10.98
2023-03-26T06:04:02.136Z,9.77
2023-03-26T06:06:28.597Z,10.15
2023-03-26T06:09:02.345Z,11.60
2023-03-26T06:11:30.784Z,10.68
2023-03-26T06:13:57.854Z,11.70
2023-03-26T06:16:26.257Z,10.70
2023-03-26T06:18:57.280Z,11.85
2023-03-26T06:21:28.014Z,10.27
2023-03-26T06:23:55.430Z,10.95
2023-03-26T06:26:22.300Z,11.05
2023-03-26T06:28:48.838Z,13.73
2023-03-26T06:31:17.217Z,11.60
2023-03-26T06:33:43.740Z,12.82
2023-03-26T06:36:10.607Z,11.23
2023-03-26T06:38:37.024Z,12.35
2023-03-26T06:41:04.804Z,9.77
2023-03-26T06:43:33.667Z,11.50
2023-03-26T06:46:01.282Z,9.88
2023-03-26T06:48:28.072Z,14.10
2023-03-26T06:50:54.846Z,11.15
2023-03-26T06:53:21.560Z,10.93
2023-03-26T06:55:47.989Z,12.02
2023-03-26T06:58:14.537Z,13.18
2023-03-26T07:00:42.190Z,14.02
2023-03-26T07:03:08.787Z,13.30
2023-03-26T07:05:35.368Z,13.20
2023-03-26T07:08:03.044Z,14.40
2023-03-26T07:10:29.476Z,13.38
2023-03-26T07:12:56.131Z,16.58
2023-03-26T07:15:22.590Z,15.70
2023-03-26T07:17:49.115Z,17.42
2023-03-26T07:20:15.774Z,16.75
2023-03-26T07:22:42.564Z,16.63
2023-03-26T07:25:09.930Z,16.33
2023-03-26T07:27:59.791Z,16.80
2023-03-26T07:30:38.399Z,15.35
2023-03-26T07:33:15.375Z,14.05
2023-03-26T07:35:48.572Z,19.15
2023-03-26T07:38:30.126Z,14.30
2023-03-26T07:41:13.904Z,12.75
2023-03-26T07:44:08.939Z,12.38
2023-03-26T07:46:37.040Z,9.80
2023-03-26T07:49:04.533Z,11.05
2023-03-26T07:51:31.936Z,10.45
2023-03-26T07:54:02.531Z,9.90
2023-03-26T07:56:38.031Z,9.32
2023-03-26T07:59:16.768Z,11.80
2023-03-26T08:02:19.056Z,11.15
2023-03-26T08:05:18.911Z,12.98
2023-03-26T08:08:13.775Z,10.25
2023-03-26T08:10:52.654Z,10.98
2023-03-26T08:13:30.488Z,9.77
2023-03-26T08:16:05.473Z,8.20
2023-03-26T08:18:50.468Z,7.25
2023-03-26T08:21:28.982Z,7.25
2023-03-26T08:24:09.613Z,6.65
2023-03-26T08:26:47.276Z,6.75
2023-03-26T08:29:42.108Z,6.97
2023-03-26T08:32:16.216Z,6.55
2023-03-26T08:34:42.730Z,5.93
2023-03-26T08:37:09.840Z,5.70
2023-03-26T08:39:38.726Z,5.72
2023-03-26T08:42:29.491Z,5.63
2023-03-26T08:45:20.875Z,6.15
2023-03-26T08:48:32.629Z,6.53
2023-03-26T08:51:15.183Z,7.22
2023-03-26T08:53:55.499Z,6.20
2023-03-26T08:56:56.731Z,6.25
2023-03-26T08:59:40.761Z,6.05
2023-03-26T09:02:23.885Z,5.50
2023-03-26T09:05:08.810Z,5.80
2023-03-26T09:08:04.034Z,5.63
2023-03-26T09:10:49.997Z,4.38
2023-03-26T09:13:34.781Z,5.55
2023-03-26T09:16:39.009Z,5.22
2023-03-26T09:19:11.298Z,5.65
2023-03-26T09:24:44.701Z,5.72
2023-03-26T09:27:32.584Z,6.32
2023-03-26T09:30:37.267Z,5.75
2023-03-26T09:33:11.851Z,5.47
2023-03-26T09:35:44.050Z,5.57
2023-03-26T09:41:25.361Z,5.55
2023-03-26T09:44:16.577Z,6.35
2023-03-26T09:47:19.680Z,6.45
2023-03-26T09:49:52.305Z,5.97
2023-03-26T09:52:21.764Z,6.15
2023-03-26T09:55:20.180Z,4.85
2023-03-26T09:58:04.861Z,4.85
2023-03-26T10:00:41.795Z,5.15
2023-03-26T10:03:10.982Z,4.45
2023-03-26T10:05:59.041Z,3.53
2023-03-26T10:08:34.725Z,4.07
2023-03-26T10:11:24.041Z,4.78
2023-03-26T10:14:24.555Z,3.05
2023-03-26T10:17:03.048Z,6.13
2023-03-26T10:19:41.756Z,5.38
2023-03-26T10:22:35.958Z,3.28
2023-03-26T10:25:32.724Z,4.05
2023-03-26T10:28:17.944Z,3.83
2023-03-26T10:31:06.164Z,3.70
2023-03-26T10:34:01.201Z,3.88
2023-03-26T10:36:36.715Z,3.72
2023-03-26T10:39:36.749Z,4.45
2023-03-26T10:42:40.812Z,4.85
2023-03-26T10:45:11.068Z,4.40
2023-03-26T10:47:58.956Z,4.32
2023-03-26T10:50:36.849Z,4.18
2023-03-26T10:53:11.554Z,4.03
2023-03-26T10:55:42.121Z,3.60
2023-03-26T10:58:49.768Z,4.28
2023-03-26T11:01:19.471Z,3.92
2023-03-26T11:03:52.006Z,3.85
2023-03-26T11:06:44.399Z,4.35
2023-03-26T11:09:29.637Z,3.80
2023-03-26T11:12:26.738Z,4.13
2023-03-26T11:15:18.938Z,4.78
2023-03-26T11:17:45.807Z,4.57
2023-03-26T11:20:12.322Z,4.00
2023-03-26T11:22:53.800Z,4.30
2023-03-26T11:25:46.698Z,4.88
2023-03-26T11:28:28.434Z,5.53
2023-03-26T11:31:04.264Z,4.55
2023-03-26T11:33:45.545Z,5.07
2023-03-26T11:38:46.694Z,3.33
2023-03-26T11:41:23.044Z,2.85
2023-03-26T11:43:57.867Z,2.70
2023-03-26T11:46:26.493Z,5.20
2023-03-26T11:48:59.142Z,2.70
2023-03-26T11:51:34.168Z,3.75
2023-03-26T11:54:01.454Z,3.55
2023-03-26T11:56:41.112Z,3.15
2023-03-26T11:59:30.075Z,3.47
2023-03-26T12:01:59.170Z,3.75
2023-03-26T12:04:36.419Z,2.90
2023-03-26T12:07:25.161Z,2.83
2023-03-26T12:10:17.674Z,3.03
2023-03-26T12:12:47.502Z,3.28
2023-03-26T12:15:19.094Z,3.50
2023-03-26T12:17:48.330Z,3.00
2023-03-26T12:20:24.847Z,2.60
2023-03-26T12:22:59.066Z,3.75
2023-03-26T12:25:28.019Z,3.80
2023-03-26T12:28:04.726Z,2.88
2023-03-26T12:30:35.118Z,3.47
2023-03-26T12:33:05.589Z,3.38
2023-03-26T12:35:34.743Z,2.60
2023-03-26T12:38:17.055Z,3.38
2023-03-26T12:44:54.550Z,2.70
2023-03-26T12:47:55.465Z,3.42
2023-03-26T12:49:11.830Z,3.90
2023-03-26T12:52:11.823Z,3.47
2023-03-26T12:55:03.242Z,3.03
2023-03-26T12:57:54.279Z,4.30
2023-03-26T13:00:42.516Z,3.42
2023-03-26T13:03:08.949Z,2.88
2023-03-26T13:06:09.362Z,2.28
2023-03-26T13:08:54.467Z,2.53
2023-03-26T13:11:39.336Z,2.80
2023-03-26T13:14:39.117Z,1.80
2023-03-26T13:17:30.273Z,3.25
2023-03-26T13:20:33.464Z,2.50
2023-03-26T13:23:11.113Z,3.17
2023-03-26T13:25:51.230Z,2.83
2023-03-26T13:28:28.845Z,2.70
2023-03-26T13:31:29.012Z,2.10
2023-03-26T13:34:13.934Z,3.65
2023-03-26T13:36:43.453Z,2.50
2023-03-26T13:39:15.433Z,3.33
2023-03-26T13:41:53.851Z,2.40
2023-03-26T13:45:16.821Z,3.00
2023-03-26T13:50:23.283Z,2.08
2023-03-26T13:52:53.212Z,2.35
2023-03-26T13:55:47.850Z,2.10
2023-03-26T13:58:41.683Z,2.30
2023-03-26T14:01:16.738Z,2.55
2023-03-26T14:04:00.793Z,2.30
2023-03-26T14:06:47.028Z,2.78
2023-03-26T14:09:32.071Z,2.90
2023-03-26T14:12:37.121Z,2.05
2023-03-26T14:15:14.045Z,1.67
2023-03-26T14:18:06.049Z,2.42
2023-03-26T14:20:59.840Z,2.78
2023-03-26T14:23:48.797Z,1.40
2023-03-26T14:26:49.111Z,2.15
2023-03-26T14:29:23.596Z,2.38
2023-03-26T14:32:24.799Z,1.55
2023-03-26T14:35:20.349Z,1.95
2023-03-26T14:38:24.415Z,2.35
2023-03-26T14:41:12.914Z,2.20
2023-03-26T14:43:57.846Z,2.83
2023-03-26T14:46:38.203Z,2.22
2023-03-26T14:49:09.436Z,2.20
2023-03-26T14:51:53.190Z,2.08
2023-03-26T14:54:24.460Z,1.63
2023-03-26T14:57:17.808Z,1.63
2023-03-26T14:59:59.283Z,2.50
2023-03-26T15:03:11.078Z,2.25
2023-03-26T15:06:06.454Z,1.93
2023-03-26T15:08:58.644Z,2.03
2023-03-26T15:11:43.325Z,2.10
2023-03-26T15:14:39.864Z,2.47
2023-03-26T15:17:37.320Z,2.10
2023-03-26T15:20:19.202Z,2.35
2023-03-26T15:23:03.919Z,3.08
2023-03-26T15:26:00.741Z,1.70
2023-03-26T15:28:46.523Z,2.00
2023-03-26T15:31:37.427Z,2.10
2023-03-26T15:34:20.200Z,2.40
2023-03-26T15:37:10.695Z,1.90
2023-03-26T15:40:09.723Z,3.33
2023-03-26T15:42:59.233Z,3.20
2023-03-26T15:45:41.272Z,2.30
2023-03-26T15:48:11.605Z,2.38
2023-03-26T15:51:03.386Z,2.30
2023-03-26T15:53:53.310Z,1.80
2023-03-26T15:56:40.315Z,2.05
2023-03-26T15:59:34.716Z,1.98
2023-03-26T16:02:07.553Z,1.63
2023-03-26T16:04:52.431Z,2.65
2023-03-26T16:07:38.960Z,2.00
2023-03-26T16:10:23.225Z,2.08
2023-03-26T16:13:14.780Z,2.55
2023-03-26T16:15:42.686Z,4.97
2023-03-26T16:18:15.561Z,4.43
2023-03-26T16:20:50.807Z,2.45
2023-03-26T16:23:47.708Z,6.00
2023-03-26T16:26:23.426Z,4.88
2023-03-26T16:28:53.507Z,25.63
2023-03-26T16:31:37.010Z,21.90
2023-03-26T16:34:07.444Z,3.47
2023-03-26T16:36:35.832Z,1.90
2023-03-26T16:39:05.466Z,2.60
2023-03-26T16:41:34.642Z,1.92
2023-03-26T16:44:28.559Z,2.88
2023-03-26T16:47:00.900Z,2.00
2023-03-26T16:49:45.961Z,1.77
2023-03-26T16:52:42.733Z,1.80
2023-03-26T16:55:21.978Z,2.05
2023-03-26T16:58:10.256Z,1.85
2023-03-26T17:00:52.412Z,1.83
2023-03-26T17:03:27.021Z,1.77
2023-03-26T17:06:02.045Z,2.80
2023-03-26T17:08:46.648Z,1.50
2023-03-26T17:11:31.129Z,1.75
2023-03-26T17:14:26.856Z,1.80
2023-03-26T17:17:40.290Z,2.03
2023-03-26T17:20:35.782Z,2.45
2023-03-26T17:23:08.160Z,3.40
2023-03-26T17:26:02.733Z,3.75
2023-03-26T17:28:53.187Z,3.40
2023-03-26T17:31:41.125Z,1.83
2023-03-26T17:34:38.740Z,1.58
2023-03-26T17:37:30.665Z,2.30
2023-03-26T17:40:10.863Z,3.38
2023-03-26T17:42:37.739Z,1.88
2023-03-26T17:45:24.968Z,2.20
2023-03-26T17:47:57.338Z,1.55
2023-03-26T17:50:44.040Z,1.77
2023-03-26T17:53:17.669Z,2.10
2023-03-26T17:55:45.764Z,1.40
2023-03-26T17:58:27.463Z,1.50
2023-03-26T18:01:19.996Z,1.95
2023-03-26T18:06:37.606Z,2.42
2023-03-26T18:09:33.344Z,1.48
2023-03-26T18:12:24.339Z,1.63
2023-03-26T18:15:12.080Z,1.60
2023-03-26T18:17:41.449Z,1.98
2023-03-26T18:20:20.115Z,1.98
2023-03-26T18:22:46.986Z,1.40
2023-03-26T18:25:23.643Z,2.40
2023-03-26T18:27:50.161Z,1.73
2023-03-26T18:30:22.700Z,1.40
2023-03-26T18:32:54.891Z,1.95
2023-03-26T18:37:53.272Z,2.42
2023-03-26T18:40:22.254Z,1.52
2023-03-26T18:42:52.312Z,1.50
2023-03-26T18:45:51.476Z,2.53
2023-03-26T18:48:21.225Z,1.90
2023-03-26T18:50:52.807Z,1.80
2023-03-26T18:53:24.651Z,1.63
2023-03-26T18:55:52.256Z,1.92
2023-03-26T18:58:28.114Z,1.70
2023-03-26T19:00:58.590Z,1.73
2023-03-26T19:03:27.914Z,2.08
2023-03-26T19:05:56.455Z,1.63
2023-03-26T19:08:24.567Z,1.80
2023-03-26T19:10:53.064Z,1.67
2023-03-26T19:13:23.176Z,1.83
2023-03-26T19:15:52.077Z,1.55
2023-03-26T19:18:28.606Z,0.95
2023-03-26T19:21:01.243Z,1.90
2023-03-26T19:23:38.917Z,2.00
2023-03-26T19:26:07.932Z,1.60
2023-03-26T19:28:37.780Z,2.38
2023-03-26T19:31:07.992Z,2.30
2023-03-26T19:33:39.848Z,2.22
2023-03-26T19:36:23.076Z,2.08
2023-03-26T19:38:54.920Z,2.63
2023-03-26T19:41:26.942Z,1.70
2023-03-26T19:46:23.527Z,1.63
2023-03-26T19:48:54.731Z,2.33
2023-03-26T19:51:25.567Z,2.17
2023-03-26T19:53:59.057Z,1.63
2023-03-26T19:56:25.587Z,3.03
2023-03-26T19:58:55.206Z,2.50
2023-03-26T20:01:27.223Z,1.40
2023-03-26T20:04:02.338Z,2.38
2023-03-26T20:06:41.457Z,1.27
2023-03-26T20:09:11.492Z,2.00
2023-03-26T20:11:39.529Z,1.58
2023-03-26T20:14:21.448Z,2.03
2023-03-26T20:16:47.903Z,1.58
2023-03-26T20:19:15.001Z,2.30
2023-03-26T20:21:48.849Z,2.85
2023-03-26T20:24:17.520Z,2.17
2023-03-26T20:26:45.813Z,1.60
2023-03-26T20:29:13.748Z,1.92
2023-03-26T20:31:41.650Z,2.80
2023-03-26T20:34:20.649Z,1.98
2023-03-26T20:36:48.083Z,1.38
2023-03-26T20:39:14.683Z,1.90
2023-03-26T20:41:46.012Z,2.25
2023-03-26T20:44:15.673Z,1.70
2023-03-26T20:46:43.959Z,1.50
2023-03-26T20:49:11.333Z,1.90
2023-03-26T20:51:38.943Z,1.67
2023-03-26T20:54:09.090Z,1.40
2023-03-26T20:56:37.599Z,1.27
2023-03-26T20:59:11.018Z,1.23
2023-03-26T21:01:38.419Z,2.00
2023-03-26T21:04:07.922Z,1.40
2023-03-26T21:06:34.486Z,1.90
2023-03-26T21:09:01.130Z,1.83
2023-03-26T21:11:51.877Z,1.60
2023-03-26T21:14:41.036Z,2.22
2023-03-26T21:17:19.255Z,2.22
2023-03-26T21:19:46.137Z,1.67
2023-03-26T21:22:27.624Z,1.65
2023-03-26T21:25:25.646Z,1.30
2023-03-26T21:28:05.889Z,1.17
2023-03-26T21:30:34.195Z,2.17
2023-03-26T21:33:01.460Z,1.20
2023-03-26T21:35:28.346Z,2.33
2023-03-26T21:37:57.537Z,1.70
2023-03-26T21:40:24.337Z,1.88
2023-03-26T21:42:53.399Z,1.60
2023-03-26T21:45:21.680Z,1.30
2023-03-26T21:47:48.803Z,2.50
2023-03-26T21:50:19.371Z,1.30
2023-03-26T21:52:50.865Z,1.83
2023-03-26T21:55:18.336Z,1.65
2023-03-26T21:58:00.987Z,2.58
2023-03-26T22:00:43.616Z,1.38
2023-03-26T22:03:33.017Z,1.33
2023-03-26T22:06:11.368Z,2.00
2023-03-26T22:08:40.745Z,1.10
2023-03-26T22:11:10.471Z,1.75
2023-03-26T22:13:40.733Z,1.50
2023-03-26T22:16:09.733Z,1.23
2023-03-26T22:18:38.602Z,1.75
2023-03-26T22:21:05.917Z,1.48
2023-03-26T22:23:36.050Z,1.70
2023-03-26T22:26:04.158Z,2.03
2023-03-26T22:28:31.133Z,1.00
2023-03-26T22:30:58.567Z,1.80
2023-03-26T22:33:25.183Z,1.95
2023-03-26T22:35:52.344Z,2.78
2023-03-26T22:38:19.130Z,1.23
2023-03-26T22:40:46.750Z,1.30
2023-03-26T22:43:13.146Z,1.52
2023-03-26T22:45:39.522Z,2.20
2023-03-26T22:48:06.076Z,2.17
2023-03-26T22:50:33.437Z,1.95
2023-03-26T22:52:59.938Z,1.30
2023-03-26T22:55:28.731Z,2.15
2023-03-26T22:57:56.299Z,1.30
2023-03-26T23:00:23.156Z,1.30
2023-03-26T23:02:49.930Z,1.63
2023-03-26T23:05:19.891Z,1.95
2023-03-26T23:07:47.295Z,1.88
2023-03-26T23:10:13.850Z,1.45
2023-03-26T23:12:41.377Z,2.22
2023-03-26T23:15:09.574Z,1.40
2023-03-26T23:17:37.592Z,1.50
2023-03-26T23:20:12.444Z,1.85
2023-03-26T23:22:38.810Z,1.27
2023-03-26T23:25:05.613Z,1.27
2023-03-26T23:27:32.938Z,1.65
2023-03-26T23:29:59.373Z,1.50
2023-03-26T23:32:25.796Z,1.10
2023-03-26T23:34:52.842Z,0.80
2023-03-26T23:37:23.204Z,1.67
2023-03-26T23:39:52.869Z,1.20
2023-03-26T23:42:29.582Z,1.40
2023-03-26T23:44:57.260Z,1.15
2023-03-26T23:47:24.437Z,1.65
2023-03-26T23:49:50.963Z,1.33
2023-03-26T23:52:17.558Z,2.38
2023-03-26T23:54:45.142Z,1.63
2023-03-26T23:57:11.692Z,1.17
2023-03-26T23:59:38.276Z,1.73
